sensor_id;sensor_type;location;lat;lon;timestamp;temperature;humidity
4435;DHT22;46552;52.150;8.428;2022-08-26T00:00:42;22.00;99.90
4435;DHT22;46552;52.150;8.428;2022-08-26T00:03:10;21.90;99.90
4435;DHT22;46552;52.150;8.428;2022-08-26T00:05:38;21.90;99.90
4435;DHT22;46552;52.150;8.428;2022-08-26T00:08:06;21.90;99.90
4435;DHT22;46552;52.150;8.428;2022-08-26T00:10:34;21.90;99.90
4435;DHT22;46552;52.150;8.428;2022-08-26T00:13:01;21.80;99.90
4435;DHT22;46552;52.150;8.428;2022-08-26T00:15:30;21.80;99.90
4435;DHT22;46552;52.150;8.428;2022-08-26T00:17:57;21.70;99.90
4435;DHT22;46552;52.150;8.428;2022-08-26T00:20:27;21.70;99.90
4435;DHT22;46552;52.150;8.428;2022-08-26T00:22:56;21.60;99.90
4435;DHT22;46552;52.150;8.428;2022-08-26T00:25:23;21.50;99.90
4435;DHT22;46552;52.150;8.428;2022-08-26T00:27:51;21.50;99.90
4435;DHT22;46552;52.150;8.428;2022-08-26T00:30:21;21.50;99.90
4435;DHT22;46552;52.150;8.428;2022-08-26T00:32:50;21.50;99.90
4435;DHT22;46552;52.150;8.428;2022-08-26T00:35:17;21.50;99.90
4435;DHT22;46552;52.150;8.428;2022-08-26T00:37:45;21.50;99.90
4435;DHT22;46552;52.150;8.428;2022-08-26T00:40:17;21.60;99.90
4435;DHT22;46552;52.150;8.428;2022-08-26T00:42:45;21.60;99.90
4435;DHT22;46552;52.150;8.428;2022-08-26T00:45:14;21.60;99.90
4435;DHT22;46552;52.150;8.428;2022-08-26T00:47:44;21.60;99.90
4435;DHT22;46552;52.150;8.428;2022-08-26T00:50:17;21.50;99.90
4435;DHT22;46552;52.150;8.428;2022-08-26T00:52:45;21.40;99.90
4435;DHT22;46552;52.150;8.428;2022-08-26T00:55:17;21.40;99.90
4435;DHT22;46552;52.150;8.428;2022-08-26T00:57:45;21.30;99.90
4435;DHT22;46552;52.150;8.428;2022-08-26T01:00:16;21.30;99.90
4435;DHT22;46552;52.150;8.428;2022-08-26T01:02:45;21.20;99.90
4435;DHT22;46552;52.150;8.428;2022-08-26T01:05:15;21.20;99.90
4435;DHT22;46552;52.150;8.428;2022-08-26T01:07:43;21.20;99.90
4435;DHT22;46552;52.150;8.428;2022-08-26T01:10:13;21.20;99.90
4435;DHT22;46552;52.150;8.428;2022-08-26T01:12:45;21.20;99.90
4435;DHT22;46552;52.150;8.428;2022-08-26T01:15:18;21.20;99.90
4435;DHT22;46552;52.150;8.428;2022-08-26T01:17:46;21.20;99.90
4435;DHT22;46552;52.150;8.428;2022-08-26T01:20:25;21.10;99.90
4435;DHT22;46552;52.150;8.428;2022-08-26T01:22:55;21.20;99.90
4435;DHT22;46552;52.150;8.428;2022-08-26T01:25:24;21.20;99.90
4435;DHT22;46552;52.150;8.428;2022-08-26T01:27:55;21.20;99.90
4435;DHT22;46552;52.150;8.428;2022-08-26T01:30:23;21.20;99.90
4435;DHT22;46552;52.150;8.428;2022-08-26T01:32:51;21.20;99.90
4435;DHT22;46552;52.150;8.428;2022-08-26T01:35:20;21.20;99.90
4435;DHT22;46552;52.150;8.428;2022-08-26T01:37:49;21.20;99.90
4435;DHT22;46552;52.150;8.428;2022-08-26T01:40:23;21.10;99.90
4435;DHT22;46552;52.150;8.428;2022-08-26T01:42:52;21.00;99.90
4435;DHT22;46552;52.150;8.428;2022-08-26T01:45:22;21.00;99.90
4435;DHT22;46552;52.150;8.428;2022-08-26T01:47:54;20.90;99.90
4435;DHT22;46552;52.150;8.428;2022-08-26T01:50:26;20.90;99.90
4435;DHT22;46552;52.150;8.428;2022-08-26T01:52:55;20.80;99.90
4435;DHT22;46552;52.150;8.428;2022-08-26T01:55:26;20.80;99.90
4435;DHT22;46552;52.150;8.428;2022-08-26T01:57:55;20.90;99.90
4435;DHT22;46552;52.150;8.428;2022-08-26T02:00:23;20.90;99.90
4435;DHT22;46552;52.150;8.428;2022-08-26T02:02:54;21.00;99.90
4435;DHT22;46552;52.150;8.428;2022-08-26T02:05:41;20.90;99.90
4435;DHT22;46552;52.150;8.428;2022-08-26T02:08:08;20.90;99.90
4435;DHT22;46552;52.150;8.428;2022-08-26T02:10:38;20.90;99.90
4435;DHT22;46552;52.150;8.428;2022-08-26T02:13:07;20.90;99.90
4435;DHT22;46552;52.150;8.428;2022-08-26T02:15:35;20.80;99.90
4435;DHT22;46552;52.150;8.428;2022-08-26T02:18:04;20.80;99.90
4435;DHT22;46552;52.150;8.428;2022-08-26T02:20:31;20.80;99.90
4435;DHT22;46552;52.150;8.428;2022-08-26T02:22:58;20.70;99.90
4435;DHT22;46552;52.150;8.428;2022-08-26T02:25:30;20.70;99.90
4435;DHT22;46552;52.150;8.428;2022-08-26T02:27:59;20.80;99.90
4435;DHT22;46552;52.150;8.428;2022-08-26T02:30:28;20.80;99.90
4435;DHT22;46552;52.150;8.428;2022-08-26T02:32:57;20.80;99.90
4435;DHT22;46552;52.150;8.428;2022-08-26T02:35:25;20.80;99.90
4435;DHT22;46552;52.150;8.428;2022-08-26T02:37:52;20.80;99.90
4435;DHT22;46552;52.150;8.428;2022-08-26T02:40:23;20.70;99.90
4435;DHT22;46552;52.150;8.428;2022-08-26T02:42:51;20.70;99.90
4435;DHT22;46552;52.150;8.428;2022-08-26T02:45:20;20.70;99.90
4435;DHT22;46552;52.150;8.428;2022-08-26T02:47:48;20.70;99.90
4435;DHT22;46552;52.150;8.428;2022-08-26T02:50:16;20.70;99.90
4435;DHT22;46552;52.150;8.428;2022-08-26T02:52:44;20.60;99.90
4435;DHT22;46552;52.150;8.428;2022-08-26T02:55:13;20.60;99.90
4435;DHT22;46552;52.150;8.428;2022-08-26T02:57:41;20.60;99.90
4435;DHT22;46552;52.150;8.428;2022-08-26T03:00:10;20.60;99.90
4435;DHT22;46552;52.150;8.428;2022-08-26T03:02:40;20.50;99.90
4435;DHT22;46552;52.150;8.428;2022-08-26T03:05:09;20.50;99.90
4435;DHT22;46552;52.150;8.428;2022-08-26T03:07:36;20.60;99.90
4435;DHT22;46552;52.150;8.428;2022-08-26T03:10:04;20.60;99.90
4435;DHT22;46552;52.150;8.428;2022-08-26T03:12:31;20.60;99.90
4435;DHT22;46552;52.150;8.428;2022-08-26T03:14:58;20.70;99.90
4435;DHT22;46552;52.150;8.428;2022-08-26T03:17:25;20.70;99.90
4435;DHT22;46552;52.150;8.428;2022-08-26T03:19:54;20.60;99.90
4435;DHT22;46552;52.150;8.428;2022-08-26T03:22:21;20.50;99.90
4435;DHT22;46552;52.150;8.428;2022-08-26T03:24:48;20.40;99.90
4435;DHT22;46552;52.150;8.428;2022-08-26T03:27:16;20.40;99.90
4435;DHT22;46552;52.150;8.428;2022-08-26T03:29:43;20.30;99.90
4435;DHT22;46552;52.150;8.428;2022-08-26T03:32:28;20.30;99.90
4435;DHT22;46552;52.150;8.428;2022-08-26T03:34:57;20.30;99.90
4435;DHT22;46552;52.150;8.428;2022-08-26T03:37:25;20.30;99.90
4435;DHT22;46552;52.150;8.428;2022-08-26T03:39:52;20.20;99.90
4435;DHT22;46552;52.150;8.428;2022-08-26T03:42:19;20.20;99.90
4435;DHT22;46552;52.150;8.428;2022-08-26T03:44:46;20.30;99.90
4435;DHT22;46552;52.150;8.428;2022-08-26T03:47:13;20.30;99.90
4435;DHT22;46552;52.150;8.428;2022-08-26T03:49:41;20.30;99.90
4435;DHT22;46552;52.150;8.428;2022-08-26T03:54:39;20.20;99.90
4435;DHT22;46552;52.150;8.428;2022-08-26T03:57:06;20.20;99.90
4435;DHT22;46552;52.150;8.428;2022-08-26T03:59:35;20.20;99.90
4435;DHT22;46552;52.150;8.428;2022-08-26T04:02:02;20.20;99.90
4435;DHT22;46552;52.150;8.428;2022-08-26T04:04:29;20.20;99.90
4435;DHT22;46552;52.150;8.428;2022-08-26T04:06:58;20.20;99.90
4435;DHT22;46552;52.150;8.428;2022-08-26T04:09:27;20.20;99.90
4435;DHT22;46552;52.150;8.428;2022-08-26T04:11:55;20.20;99.90
4435;DHT22;46552;52.150;8.428;2022-08-26T04:14:25;20.10;99.90
4435;DHT22;46552;52.150;8.428;2022-08-26T04:16:53;20.10;99.90
4435;DHT22;46552;52.150;8.428;2022-08-26T04:19:22;20.10;99.90
4435;DHT22;46552;52.150;8.428;2022-08-26T04:21:52;20.10;99.90
4435;DHT22;46552;52.150;8.428;2022-08-26T04:24:20;20.10;99.90
4435;DHT22;46552;52.150;8.428;2022-08-26T04:26:49;20.10;99.90
4435;DHT22;46552;52.150;8.428;2022-08-26T04:29:18;20.10;99.90
4435;DHT22;46552;52.150;8.428;2022-08-26T04:31:46;20.00;99.90
4435;DHT22;46552;52.150;8.428;2022-08-26T04:34:13;20.00;99.90
4435;DHT22;46552;52.150;8.428;2022-08-26T04:36:41;19.90;99.90
4435;DHT22;46552;52.150;8.428;2022-08-26T04:39:08;19.90;99.90
4435;DHT22;46552;52.150;8.428;2022-08-26T04:41:37;19.80;99.90
4435;DHT22;46552;52.150;8.428;2022-08-26T04:44:06;19.80;99.90
4435;DHT22;46552;52.150;8.428;2022-08-26T04:46:34;19.90;99.90
4435;DHT22;46552;52.150;8.428;2022-08-26T04:49:02;19.80;99.90
4435;DHT22;46552;52.150;8.428;2022-08-26T04:51:30;19.80;99.90
4435;DHT22;46552;52.150;8.428;2022-08-26T04:53:59;19.80;99.90
4435;DHT22;46552;52.150;8.428;2022-08-26T04:56:28;19.80;99.90
4435;DHT22;46552;52.150;8.428;2022-08-26T04:58:55;19.70;99.90
4435;DHT22;46552;52.150;8.428;2022-08-26T05:01:25;19.70;99.90
4435;DHT22;46552;52.150;8.428;2022-08-26T05:03:52;19.80;99.90
4435;DHT22;46552;52.150;8.428;2022-08-26T05:06:19;19.90;99.90
4435;DHT22;46552;52.150;8.428;2022-08-26T05:08:46;19.90;99.90
4435;DHT22;46552;52.150;8.428;2022-08-26T05:11:13;19.90;99.90
4435;DHT22;46552;52.150;8.428;2022-08-26T05:13:41;19.90;99.90
4435;DHT22;46552;52.150;8.428;2022-08-26T05:16:11;19.90;99.90
4435;DHT22;46552;52.150;8.428;2022-08-26T05:18:40;19.90;99.90
4435;DHT22;46552;52.150;8.428;2022-08-26T05:21:15;19.90;99.90
4435;DHT22;46552;52.150;8.428;2022-08-26T05:23:43;19.90;99.90
4435;DHT22;46552;52.150;8.428;2022-08-26T05:26:12;20.00;99.90
4435;DHT22;46552;52.150;8.428;2022-08-26T05:28:39;20.10;99.90
4435;DHT22;46552;52.150;8.428;2022-08-26T05:31:14;20.10;99.90
4435;DHT22;46552;52.150;8.428;2022-08-26T05:33:43;20.20;99.90
4435;DHT22;46552;52.150;8.428;2022-08-26T05:36:13;20.20;99.90
4435;DHT22;46552;52.150;8.428;2022-08-26T05:38:41;20.30;99.90
4435;DHT22;46552;52.150;8.428;2022-08-26T05:41:14;20.30;99.90
4435;DHT22;46552;52.150;8.428;2022-08-26T05:43:41;20.40;99.90
4435;DHT22;46552;52.150;8.428;2022-08-26T05:46:09;20.40;99.90
4435;DHT22;46552;52.150;8.428;2022-08-26T05:48:37;20.50;99.90
4435;DHT22;46552;52.150;8.428;2022-08-26T05:51:08;20.60;99.90
4435;DHT22;46552;52.150;8.428;2022-08-26T05:53:38;20.60;99.90
4435;DHT22;46552;52.150;8.428;2022-08-26T05:56:06;20.70;99.90
4435;DHT22;46552;52.150;8.428;2022-08-26T05:58:35;20.80;99.90
4435;DHT22;46552;52.150;8.428;2022-08-26T06:01:06;20.90;99.90
4435;DHT22;46552;52.150;8.428;2022-08-26T06:03:37;20.90;99.90
4435;DHT22;46552;52.150;8.428;2022-08-26T06:06:07;20.90;99.90
4435;DHT22;46552;52.150;8.428;2022-08-26T06:08:35;21.10;99.90
4435;DHT22;46552;52.150;8.428;2022-08-26T06:11:07;21.10;99.90
4435;DHT22;46552;52.150;8.428;2022-08-26T06:13:35;21.20;99.90
4435;DHT22;46552;52.150;8.428;2022-08-26T06:16:05;21.30;99.90
4435;DHT22;46552;52.150;8.428;2022-08-26T06:18:35;21.40;99.90
4435;DHT22;46552;52.150;8.428;2022-08-26T06:21:14;21.50;99.90
4435;DHT22;46552;52.150;8.428;2022-08-26T06:23:42;21.60;99.90
4435;DHT22;46552;52.150;8.428;2022-08-26T06:26:28;21.70;99.90
4435;DHT22;46552;52.150;8.428;2022-08-26T06:28:56;21.70;99.90
4435;DHT22;46552;52.150;8.428;2022-08-26T06:31:25;21.80;99.90
4435;DHT22;46552;52.150;8.428;2022-08-26T06:33:54;21.90;99.90
4435;DHT22;46552;52.150;8.428;2022-08-26T06:36:26;21.90;99.90
4435;DHT22;46552;52.150;8.428;2022-08-26T06:38:54;22.00;99.90
4435;DHT22;46552;52.150;8.428;2022-08-26T06:41:22;22.20;99.90
4435;DHT22;46552;52.150;8.428;2022-08-26T06:43:50;22.30;99.90
4435;DHT22;46552;52.150;8.428;2022-08-26T06:46:20;22.40;99.90
4435;DHT22;46552;52.150;8.428;2022-08-26T06:48:48;22.50;99.90
4435;DHT22;46552;52.150;8.428;2022-08-26T06:51:17;22.50;99.90
4435;DHT22;46552;52.150;8.428;2022-08-26T06:53:48;22.60;99.90
4435;DHT22;46552;52.150;8.428;2022-08-26T06:56:17;22.70;99.90
4435;DHT22;46552;52.150;8.428;2022-08-26T06:58:45;22.90;99.90
4435;DHT22;46552;52.150;8.428;2022-08-26T07:01:17;23.00;99.90
4435;DHT22;46552;52.150;8.428;2022-08-26T07:03:46;23.10;99.90
4435;DHT22;46552;52.150;8.428;2022-08-26T07:06:14;23.20;99.90
4435;DHT22;46552;52.150;8.428;2022-08-26T07:08:43;23.30;99.90
4435;DHT22;46552;52.150;8.428;2022-08-26T07:11:13;23.40;99.90
4435;DHT22;46552;52.150;8.428;2022-08-26T07:13:40;23.50;99.90
4435;DHT22;46552;52.150;8.428;2022-08-26T07:16:10;23.60;99.90
4435;DHT22;46552;52.150;8.428;2022-08-26T07:18:40;23.70;99.90
4435;DHT22;46552;52.150;8.428;2022-08-26T07:21:10;23.70;99.90
4435;DHT22;46552;52.150;8.428;2022-08-26T07:23:37;23.80;99.90
4435;DHT22;46552;52.150;8.428;2022-08-26T07:26:05;23.90;99.90
4435;DHT22;46552;52.150;8.428;2022-08-26T07:28:35;24.00;99.90
4435;DHT22;46552;52.150;8.428;2022-08-26T07:31:03;24.00;99.90
4435;DHT22;46552;52.150;8.428;2022-08-26T07:33:31;24.10;99.90
4435;DHT22;46552;52.150;8.428;2022-08-26T07:35:58;24.20;99.90
4435;DHT22;46552;52.150;8.428;2022-08-26T07:38:26;24.30;99.90
4435;DHT22;46552;52.150;8.428;2022-08-26T07:40:54;24.40;99.90
4435;DHT22;46552;52.150;8.428;2022-08-26T07:43:21;24.50;99.90
4435;DHT22;46552;52.150;8.428;2022-08-26T07:45:51;24.60;99.90
4435;DHT22;46552;52.150;8.428;2022-08-26T07:48:19;24.80;99.90
4435;DHT22;46552;52.150;8.428;2022-08-26T07:50:46;25.00;99.90
4435;DHT22;46552;52.150;8.428;2022-08-26T07:53:14;25.10;99.90
4435;DHT22;46552;52.150;8.428;2022-08-26T07:55:41;25.20;99.90
4435;DHT22;46552;52.150;8.428;2022-08-26T07:58:09;25.40;99.90
4435;DHT22;46552;52.150;8.428;2022-08-26T08:00:36;25.40;99.90
4435;DHT22;46552;52.150;8.428;2022-08-26T08:03:05;25.60;99.90
4435;DHT22;46552;52.150;8.428;2022-08-26T08:05:33;25.80;99.90
4435;DHT22;46552;52.150;8.428;2022-08-26T08:08:04;26.00;99.90
4435;DHT22;46552;52.150;8.428;2022-08-26T08:10:32;26.10;99.90
4435;DHT22;46552;52.150;8.428;2022-08-26T08:13:00;26.30;99.60
4435;DHT22;46552;52.150;8.428;2022-08-26T08:15:27;26.50;99.30
4435;DHT22;46552;52.150;8.428;2022-08-26T08:17:56;26.60;99.20
4435;DHT22;46552;52.150;8.428;2022-08-26T08:20:27;26.70;99.00
4435;DHT22;46552;52.150;8.428;2022-08-26T08:22:54;26.80;98.80
4435;DHT22;46552;52.150;8.428;2022-08-26T08:25:23;26.90;98.60
4435;DHT22;46552;52.150;8.428;2022-08-26T08:27:50;27.00;98.40
4435;DHT22;46552;52.150;8.428;2022-08-26T08:30:20;27.10;98.20
4435;DHT22;46552;52.150;8.428;2022-08-26T08:32:47;27.30;97.90
4435;DHT22;46552;52.150;8.428;2022-08-26T08:35:16;27.40;97.70
4435;DHT22;46552;52.150;8.428;2022-08-26T08:37:47;27.50;97.40
4435;DHT22;46552;52.150;8.428;2022-08-26T08:40:16;27.80;97.10
4435;DHT22;46552;52.150;8.428;2022-08-26T08:42:46;28.00;96.80
4435;DHT22;46552;52.150;8.428;2022-08-26T08:45:19;28.20;96.50
4435;DHT22;46552;52.150;8.428;2022-08-26T08:47:50;28.30;96.30
4435;DHT22;46552;52.150;8.428;2022-08-26T08:50:24;28.40;96.30
4435;DHT22;46552;52.150;8.428;2022-08-26T08:53:00;28.50;96.00
4435;DHT22;46552;52.150;8.428;2022-08-26T08:55:34;28.70;95.70
4435;DHT22;46552;52.150;8.428;2022-08-26T08:58:13;28.80;95.40
4435;DHT22;46552;52.150;8.428;2022-08-26T09:00:52;29.00;95.20
4435;DHT22;46552;52.150;8.428;2022-08-26T09:03:33;29.20;94.80
4435;DHT22;46552;52.150;8.428;2022-08-26T09:06:05;29.50;94.70
4435;DHT22;46552;52.150;8.428;2022-08-26T09:08:45;29.70;94.20
4435;DHT22;46552;52.150;8.428;2022-08-26T09:11:13;29.90;93.70
4435;DHT22;46552;52.150;8.428;2022-08-26T09:13:49;30.20;93.50
4435;DHT22;46552;52.150;8.428;2022-08-26T09:16:20;30.60;93.10
4435;DHT22;46552;52.150;8.428;2022-08-26T09:19:04;30.80;92.50
4435;DHT22;46552;52.150;8.428;2022-08-26T09:21:36;31.00;91.80
4435;DHT22;46552;52.150;8.428;2022-08-26T09:24:06;31.00;91.90
4435;DHT22;46552;52.150;8.428;2022-08-26T09:26:43;31.00;91.60
4435;DHT22;46552;52.150;8.428;2022-08-26T09:29:20;31.00;91.60
4435;DHT22;46552;52.150;8.428;2022-08-26T09:31:47;31.20;91.00
4435;DHT22;46552;52.150;8.428;2022-08-26T09:34:21;31.30;91.00
4435;DHT22;46552;52.150;8.428;2022-08-26T09:36:50;31.30;90.70
4435;DHT22;46552;52.150;8.428;2022-08-26T09:39:29;31.20;90.70
4435;DHT22;46552;52.150;8.428;2022-08-26T09:42:05;31.10;90.60
4435;DHT22;46552;52.150;8.428;2022-08-26T09:44:33;31.10;90.70
4435;DHT22;46552;52.150;8.428;2022-08-26T09:47:03;31.10;90.60
4435;DHT22;46552;52.150;8.428;2022-08-26T09:49:34;31.10;90.40
4435;DHT22;46552;52.150;8.428;2022-08-26T09:52:21;31.10;90.30
4435;DHT22;46552;52.150;8.428;2022-08-26T09:55:01;31.20;90.00
4435;DHT22;46552;52.150;8.428;2022-08-26T09:57:32;31.20;89.70
4435;DHT22;46552;52.150;8.428;2022-08-26T10:00:00;31.20;90.00
4435;DHT22;46552;52.150;8.428;2022-08-26T10:02:36;31.30;90.00
4435;DHT22;46552;52.150;8.428;2022-08-26T10:05:09;31.40;89.20
4435;DHT22;46552;52.150;8.428;2022-08-26T10:07:44;31.50;89.30
4435;DHT22;46552;52.150;8.428;2022-08-26T10:10:22;31.30;89.40
4435;DHT22;46552;52.150;8.428;2022-08-26T10:12:58;31.20;89.60
4435;DHT22;46552;52.150;8.428;2022-08-26T10:15:34;31.00;90.00
4435;DHT22;46552;52.150;8.428;2022-08-26T10:18:08;30.80;90.20
4435;DHT22;46552;52.150;8.428;2022-08-26T10:20:43;30.70;90.30
4435;DHT22;46552;52.150;8.428;2022-08-26T10:23:17;30.50;90.50
4435;DHT22;46552;52.150;8.428;2022-08-26T10:25:51;30.70;90.50
4435;DHT22;46552;52.150;8.428;2022-08-26T10:28:25;30.90;90.40
4435;DHT22;46552;52.150;8.428;2022-08-26T10:30:58;31.20;90.10
4435;DHT22;46552;52.150;8.428;2022-08-26T10:33:26;31.50;89.70
4435;DHT22;46552;52.150;8.428;2022-08-26T10:35:56;31.60;88.90
4435;DHT22;46552;52.150;8.428;2022-08-26T10:38:29;31.70;88.50
4435;DHT22;46552;52.150;8.428;2022-08-26T10:41:03;31.70;88.30
4435;DHT22;46552;52.150;8.428;2022-08-26T10:43:37;31.80;88.00
4435;DHT22;46552;52.150;8.428;2022-08-26T10:46:11;31.80;87.90
4435;DHT22;46552;52.150;8.428;2022-08-26T10:48:44;31.80;87.50
4435;DHT22;46552;52.150;8.428;2022-08-26T10:51:15;31.70;87.10
4435;DHT22;46552;52.150;8.428;2022-08-26T10:53:49;31.60;87.60
4435;DHT22;46552;52.150;8.428;2022-08-26T10:56:28;31.50;87.90
4435;DHT22;46552;52.150;8.428;2022-08-26T10:59:05;31.50;88.30
4435;DHT22;46552;52.150;8.428;2022-08-26T11:01:39;31.50;88.40
4435;DHT22;46552;52.150;8.428;2022-08-26T11:04:19;31.60;88.40
4435;DHT22;46552;52.150;8.428;2022-08-26T11:14:03;32.10;87.50
4435;DHT22;46552;52.150;8.428;2022-08-26T11:16:35;32.30;87.40
4435;DHT22;46552;52.150;8.428;2022-08-26T11:19:03;32.20;87.20
4435;DHT22;46552;52.150;8.428;2022-08-26T11:21:43;32.30;87.30
4435;DHT22;46552;52.150;8.428;2022-08-26T11:24:41;32.50;87.40
4435;DHT22;46552;52.150;8.428;2022-08-26T11:27:11;32.80;86.80
4435;DHT22;46552;52.150;8.428;2022-08-26T11:30:04;33.10;85.90
4435;DHT22;46552;52.150;8.428;2022-08-26T11:32:49;33.20;85.20
4435;DHT22;46552;52.150;8.428;2022-08-26T11:35:46;33.20;84.90
4435;DHT22;46552;52.150;8.428;2022-08-26T11:38:24;33.40;84.80
4435;DHT22;46552;52.150;8.428;2022-08-26T11:41:03;33.50;84.40
4435;DHT22;46552;52.150;8.428;2022-08-26T11:43:32;33.50;84.30
4435;DHT22;46552;52.150;8.428;2022-08-26T11:46:04;33.60;84.20
4435;DHT22;46552;52.150;8.428;2022-08-26T11:48:33;33.70;83.70
4435;DHT22;46552;52.150;8.428;2022-08-26T11:51:04;33.50;83.40
4435;DHT22;46552;52.150;8.428;2022-08-26T11:53:33;33.40;83.50
4435;DHT22;46552;52.150;8.428;2022-08-26T11:56:05;33.50;83.60
4435;DHT22;46552;52.150;8.428;2022-08-26T11:58:34;33.50;83.50
4435;DHT22;46552;52.150;8.428;2022-08-26T12:01:05;33.50;83.40
4435;DHT22;46552;52.150;8.428;2022-08-26T12:03:37;33.60;82.80
4435;DHT22;46552;52.150;8.428;2022-08-26T12:06:15;33.50;82.50
4435;DHT22;46552;52.150;8.428;2022-08-26T12:08:43;33.40;82.10
4435;DHT22;46552;52.150;8.428;2022-08-26T12:11:21;33.40;82.90
4435;DHT22;46552;52.150;8.428;2022-08-26T12:13:56;33.40;83.00
4435;DHT22;46552;52.150;8.428;2022-08-26T12:16:28;33.40;83.10
4435;DHT22;46552;52.150;8.428;2022-08-26T12:18:57;33.30;83.10
4435;DHT22;46552;52.150;8.428;2022-08-26T12:21:26;33.30;83.20
4435;DHT22;46552;52.150;8.428;2022-08-26T12:23:56;33.20;83.40
4435;DHT22;46552;52.150;8.428;2022-08-26T12:26:27;33.20;83.50
4435;DHT22;46552;52.150;8.428;2022-08-26T12:28:56;33.30;83.20
4435;DHT22;46552;52.150;8.428;2022-08-26T12:31:28;33.30;83.10
4435;DHT22;46552;52.150;8.428;2022-08-26T12:33:57;33.30;83.10
4435;DHT22;46552;52.150;8.428;2022-08-26T12:36:28;33.30;83.30
4435;DHT22;46552;52.150;8.428;2022-08-26T12:39:04;33.30;83.10
4435;DHT22;46552;52.150;8.428;2022-08-26T12:41:44;33.20;83.30
4435;DHT22;46552;52.150;8.428;2022-08-26T12:44:35;33.10;83.60
4435;DHT22;46552;52.150;8.428;2022-08-26T12:47:10;33.10;83.90
4435;DHT22;46552;52.150;8.428;2022-08-26T12:49:43;33.10;83.70
4435;DHT22;46552;52.150;8.428;2022-08-26T12:52:20;33.10;83.50
4435;DHT22;46552;52.150;8.428;2022-08-26T12:54:56;33.20;83.00
4435;DHT22;46552;52.150;8.428;2022-08-26T12:57:30;33.30;83.00
4435;DHT22;46552;52.150;8.428;2022-08-26T13:00:22;33.30;82.70
4435;DHT22;46552;52.150;8.428;2022-08-26T13:02:53;33.20;82.60
4435;DHT22;46552;52.150;8.428;2022-08-26T13:05:23;33.30;82.50
4435;DHT22;46552;52.150;8.428;2022-08-26T13:08:11;33.30;82.30
4435;DHT22;46552;52.150;8.428;2022-08-26T13:10:41;33.20;82.00
4435;DHT22;46552;52.150;8.428;2022-08-26T13:13:08;33.10;82.50
4435;DHT22;46552;52.150;8.428;2022-08-26T13:15:36;33.10;82.50
4435;DHT22;46552;52.150;8.428;2022-08-26T13:18:05;33.10;82.50
4435;DHT22;46552;52.150;8.428;2022-08-26T13:20:32;33.10;82.50
4435;DHT22;46552;52.150;8.428;2022-08-26T13:23:00;33.20;82.40
4435;DHT22;46552;52.150;8.428;2022-08-26T13:25:27;33.00;82.40
4435;DHT22;46552;52.150;8.428;2022-08-26T13:27:55;33.00;82.60
4435;DHT22;46552;52.150;8.428;2022-08-26T13:30:22;32.90;82.80
4435;DHT22;46552;52.150;8.428;2022-08-26T13:32:51;32.90;82.60
4435;DHT22;46552;52.150;8.428;2022-08-26T13:35:22;32.90;82.30
4435;DHT22;46552;52.150;8.428;2022-08-26T13:37:49;32.90;82.30
4435;DHT22;46552;52.150;8.428;2022-08-26T13:40:16;32.90;82.30
4435;DHT22;46552;52.150;8.428;2022-08-26T13:42:43;32.90;82.20
4435;DHT22;46552;52.150;8.428;2022-08-26T13:45:12;32.90;82.10
4435;DHT22;46552;52.150;8.428;2022-08-26T13:47:39;32.90;82.10
4435;DHT22;46552;52.150;8.428;2022-08-26T13:50:06;32.80;82.20
4435;DHT22;46552;52.150;8.428;2022-08-26T13:52:35;32.70;81.70
4435;DHT22;46552;52.150;8.428;2022-08-26T13:55:04;32.80;83.10
4435;DHT22;46552;52.150;8.428;2022-08-26T13:57:31;32.70;82.30
4435;DHT22;46552;52.150;8.428;2022-08-26T13:59:58;32.70;82.40
4435;DHT22;46552;52.150;8.428;2022-08-26T14:02:25;32.70;83.10
4435;DHT22;46552;52.150;8.428;2022-08-26T14:04:54;32.60;82.40
4435;DHT22;46552;52.150;8.428;2022-08-26T14:07:22;32.60;82.70
4435;DHT22;46552;52.150;8.428;2022-08-26T14:09:50;32.60;82.80
4435;DHT22;46552;52.150;8.428;2022-08-26T14:12:18;32.60;82.80
4435;DHT22;46552;52.150;8.428;2022-08-26T14:14:45;32.60;82.80
4435;DHT22;46552;52.150;8.428;2022-08-26T14:17:13;32.70;82.90
4435;DHT22;46552;52.150;8.428;2022-08-26T14:19:45;32.70;82.80
4435;DHT22;46552;52.150;8.428;2022-08-26T14:22:15;32.70;82.70
4435;DHT22;46552;52.150;8.428;2022-08-26T14:24:42;32.60;82.70
4435;DHT22;46552;52.150;8.428;2022-08-26T14:27:11;32.50;82.70
4435;DHT22;46552;52.150;8.428;2022-08-26T14:29:39;32.50;82.80
4435;DHT22;46552;52.150;8.428;2022-08-26T14:32:08;32.40;83.10
4435;DHT22;46552;52.150;8.428;2022-08-26T14:34:36;32.30;83.20
4435;DHT22;46552;52.150;8.428;2022-08-26T14:37:04;32.20;83.20
4435;DHT22;46552;52.150;8.428;2022-08-26T14:39:32;32.20;83.00
4435;DHT22;46552;52.150;8.428;2022-08-26T14:41:59;32.30;82.90
4435;DHT22;46552;52.150;8.428;2022-08-26T14:44:30;32.30;82.80
4435;DHT22;46552;52.150;8.428;2022-08-26T14:47:00;32.20;82.40
4435;DHT22;46552;52.150;8.428;2022-08-26T14:49:27;32.10;82.60
4435;DHT22;46552;52.150;8.428;2022-08-26T14:51:55;32.10;82.70
4435;DHT22;46552;52.150;8.428;2022-08-26T14:54:22;31.90;82.70
4435;DHT22;46552;52.150;8.428;2022-08-26T14:56:51;31.80;82.90
4435;DHT22;46552;52.150;8.428;2022-08-26T14:59:20;31.60;83.00
4435;DHT22;46552;52.150;8.428;2022-08-26T15:01:50;31.50;83.30
4435;DHT22;46552;52.150;8.428;2022-08-26T15:04:18;31.30;83.80
4435;DHT22;46552;52.150;8.428;2022-08-26T15:06:45;31.10;84.30
4435;DHT22;46552;52.150;8.428;2022-08-26T15:09:13;31.00;84.70
4435;DHT22;46552;52.150;8.428;2022-08-26T15:11:41;31.00;84.90
4435;DHT22;46552;52.150;8.428;2022-08-26T15:14:08;31.00;85.00
4435;DHT22;46552;52.150;8.428;2022-08-26T15:16:36;30.90;85.00
4435;DHT22;46552;52.150;8.428;2022-08-26T15:19:05;31.00;85.10
4435;DHT22;46552;52.150;8.428;2022-08-26T15:21:34;31.00;85.10
4435;DHT22;46552;52.150;8.428;2022-08-26T15:24:02;31.00;85.20
4435;DHT22;46552;52.150;8.428;2022-08-26T15:26:30;31.00;85.10
4435;DHT22;46552;52.150;8.428;2022-08-26T15:28:58;31.00;85.20
4435;DHT22;46552;52.150;8.428;2022-08-26T15:31:27;30.90;85.30
4435;DHT22;46552;52.150;8.428;2022-08-26T15:33:56;30.80;85.50
4435;DHT22;46552;52.150;8.428;2022-08-26T15:36:25;30.60;85.80
4435;DHT22;46552;52.150;8.428;2022-08-26T15:38:55;30.60;86.00
4435;DHT22;46552;52.150;8.428;2022-08-26T15:41:24;30.60;86.20
4435;DHT22;46552;52.150;8.428;2022-08-26T15:43:51;30.50;86.30
4435;DHT22;46552;52.150;8.428;2022-08-26T15:46:19;30.30;86.50
4435;DHT22;46552;52.150;8.428;2022-08-26T15:48:46;30.10;86.80
4435;DHT22;46552;52.150;8.428;2022-08-26T15:51:19;30.00;87.20
4435;DHT22;46552;52.150;8.428;2022-08-26T15:53:49;29.70;87.70
4435;DHT22;46552;52.150;8.428;2022-08-26T15:56:17;29.60;88.40
4435;DHT22;46552;52.150;8.428;2022-08-26T15:58:44;29.40;88.90
4435;DHT22;46552;52.150;8.428;2022-08-26T16:01:13;29.30;89.50
4435;DHT22;46552;52.150;8.428;2022-08-26T16:03:41;29.10;89.90
4435;DHT22;46552;52.150;8.428;2022-08-26T16:06:09;29.00;90.20
4435;DHT22;46552;52.150;8.428;2022-08-26T16:08:38;28.80;90.30
4435;DHT22;46552;52.150;8.428;2022-08-26T16:11:08;28.60;90.60
4435;DHT22;46552;52.150;8.428;2022-08-26T16:13:35;28.40;90.80